Time;durP1;ratioP1;P1;durP2;ratioP2;P2;SDS_P1;SDS_P2;PMS_P1;PMS_P2;Temp;Humidity;BMP_temperature;BMP_pressure;BME280_temperature;BME280_humidity;BME280_pressure;Samples;Min_cycle;Max_cycle;Signal;HPM_P1;HPM_P2
2022/09/01 00:01:41;;;;;;;1.88;1.20;;;;;;;;;;4970403;28;20030;-61
2022/09/01 00:04:08;;;;;;;3.20;1.00;;;;;;;;;;4971607;28;20493;-61
2022/09/01 00:06:34;;;;;;;3.88;1.30;;;;;;;;;;4968910;28;20387;-62
2022/09/01 00:09:03;;;;;;;2.65;1.25;;;;;;;;;;4969075;28;20345;-61
2022/09/01 00:11:29;;;;;;;2.97;1.25;;;;;;;;;;4969737;28;20432;-62
2022/09/01 00:13:55;;;;;;;2.10;1.00;;;;;;;;;;4968916;28;20349;-65
2022/09/01 00:16:21;;;;;;;3.58;1.00;;;;;;;;;;4969329;28;20437;-61
2022/09/01 00:18:51;;;;;;;2.83;1.40;;;;;;;;;;4968943;28;20321;-62
2022/09/01 00:21:20;;;;;;;5.10;1.42;;;;;;;;;;4968790;28;20407;-62
2022/09/01 00:23:45;;;;;;;3.75;1.10;;;;;;;;;;4968834;28;20426;-62
2022/09/01 00:26:11;;;;;;;2.28;1.23;;;;;;;;;;4968664;28;20353;-61
2022/09/01 00:28:37;;;;;;;3.05;1.10;;;;;;;;;;4969790;28;20447;-61
2022/09/01 00:31:05;;;;;;;3.15;1.35;;;;;;;;;;4968755;28;20368;-62
2022/09/01 00:33:31;;;;;;;2.13;1.02;;;;;;;;;;4968446;28;20352;-62
2022/09/01 00:35:56;;;;;;;2.38;1.40;;;;;;;;;;4968903;28;20351;-62
2022/09/01 00:38:21;;;;;;;2.47;1.30;;;;;;;;;;4968309;28;20059;-62
2022/09/01 00:40:47;;;;;;;2.08;0.93;;;;;;;;;;4968538;28;20132;-62
2022/09/01 00:43:15;;;;;;;3.03;1.05;;;;;;;;;;4968737;28;20348;-62
2022/09/01 00:45:41;;;;;;;2.30;1.08;;;;;;;;;;4950307;28;20423;-61
2022/09/01 00:48:08;;;;;;;2.33;1.10;;;;;;;;;;4970693;28;20041;-62
2022/09/01 00:50:34;;;;;;;6.07;1.73;;;;;;;;;;4968323;28;20405;-61
2022/09/01 00:52:59;;;;;;;2.33;1.00;;;;;;;;;;4950449;28;20475;-62
2022/09/01 00:55:30;;;;;;;1.30;0.98;;;;;;;;;;4967973;28;20519;-61
2022/09/01 00:57:56;;;;;;;4.45;1.25;;;;;;;;;;4950252;28;20408;-62
2022/09/01 01:00:24;;;;;;;1.75;1.27;;;;;;;;;;4950527;28;20435;-63
2022/09/01 01:02:54;;;;;;;3.03;1.42;;;;;;;;;;4985832;28;20029;-62
2022/09/01 01:05:22;;;;;;;2.20;1.05;;;;;;;;;;4987333;28;20513;-62
2022/09/01 01:07:47;;;;;;;2.70;0.75;;;;;;;;;;4980475;28;20501;-62
2022/09/01 01:10:14;;;;;;;2.40;1.13;;;;;;;;;;4986237;28;20433;-62
2022/09/01 01:12:42;;;;;;;5.00;1.23;;;;;;;;;;4987703;28;20482;-62
2022/09/01 01:15:09;;;;;;;1.70;0.88;;;;;;;;;;4987732;28;20421;-62
2022/09/01 01:17:35;;;;;;;1.90;0.90;;;;;;;;;;4979513;28;20025;-62
2022/09/01 01:23:04;;;;;;;1.80;0.90;;;;;;;;;;4990763;28;20498;-61
2022/09/01 01:25:37;;;;;;;7.00;1.05;;;;;;;;;;4987805;28;20032;-62
2022/09/01 01:28:16;;;;;;;2.72;0.70;;;;;;;;;;4987597;28;20329;-61
2022/09/01 01:30:51;;;;;;;10.20;1.90;;;;;;;;;;4988029;28;20421;-62
2022/09/01 01:33:20;;;;;;;1.90;0.90;;;;;;;;;;4987448;28;20025;-62
2022/09/01 01:35:45;;;;;;;1.65;1.00;;;;;;;;;;4987612;28;20471;-62
2022/09/01 01:38:13;;;;;;;5.90;1.45;;;;;;;;;;4987243;28;20124;-62
2022/09/01 01:40:39;;;;;;;1.45;0.90;;;;;;;;;;4988739;28;20374;-61
2022/09/01 01:43:05;;;;;;;2.53;1.20;;;;;;;;;;4987776;28;20368;-61
2022/09/01 01:45:30;;;;;;;3.38;1.50;;;;;;;;;;4987511;28;20423;-61
2022/09/01 01:47:56;;;;;;;4.22;1.58;;;;;;;;;;4987946;28;20348;-63
2022/09/01 01:50:28;;;;;;;2.00;0.90;;;;;;;;;;4987198;28;20087;-62
2022/09/01 01:52:56;;;;;;;1.48;0.80;;;;;;;;;;4987602;28;20375;-62
2022/09/01 01:55:26;;;;;;;2.35;1.08;;;;;;;;;;4986801;28;20491;-62
2022/09/01 01:57:52;;;;;;;2.83;1.10;;;;;;;;;;4991393;28;20343;-62
2022/09/01 02:00:21;;;;;;;3.15;1.00;;;;;;;;;;4991474;28;20097;-62
2022/09/01 02:02:51;;;;;;;2.05;1.10;;;;;;;;;;4989641;28;20348;-61
2022/09/01 02:05:23;;;;;;;1.20;0.73;;;;;;;;;;4991023;28;20317;-62
2022/09/01 02:07:50;;;;;;;7.28;1.00;;;;;;;;;;4991251;28;20505;-62
2022/09/01 02:10:15;;;;;;;2.88;0.90;;;;;;;;;;4993040;28;20332;-62
2022/09/01 02:12:41;;;;;;;2.90;0.98;;;;;;;;;;4991072;28;20098;-62
2022/09/01 02:15:07;;;;;;;1.40;0.90;;;;;;;;;;4991643;28;20367;-62
2022/09/01 02:17:33;;;;;;;1.42;0.73;;;;;;;;;;4990908;28;20367;-62
2022/09/01 02:19:58;;;;;;;2.58;0.90;;;;;;;;;;4991431;28;20016;-62
2022/09/01 02:22:24;;;;;;;2.05;0.90;;;;;;;;;;4990626;28;20033;-62
2022/09/01 02:24:52;;;;;;;1.58;0.80;;;;;;;;;;4992967;28;20398;-62
2022/09/01 02:27:23;;;;;;;2.35;1.05;;;;;;;;;;4992003;28;20444;-62
2022/09/01 02:29:53;;;;;;;1.92;0.80;;;;;;;;;;4990659;28;20467;-62
2022/09/01 02:32:20;;;;;;;5.60;1.30;;;;;;;;;;4992031;28;20029;-61
2022/09/01 02:34:52;;;;;;;2.03;0.90;;;;;;;;;;4991769;28;20400;-62
2022/09/01 02:37:24;;;;;;;2.25;0.95;;;;;;;;;;4990225;28;20395;-62
2022/09/01 02:39:52;;;;;;;1.08;0.70;;;;;;;;;;4990794;28;20025;-62
2022/09/01 02:42:21;;;;;;;2.45;1.17;;;;;;;;;;4991332;28;20394;-62
2022/09/01 02:44:46;;;;;;;1.77;1.13;;;;;;;;;;4991274;28;20428;-62
2022/09/01 02:47:14;;;;;;;1.90;1.05;;;;;;;;;;4990171;28;20420;-62
2022/09/01 02:49:41;;;;;;;1.83;0.93;;;;;;;;;;4991722;28;20466;-62
2022/09/01 02:52:06;;;;;;;3.40;1.10;;;;;;;;;;4992448;28;20718;-62
2022/09/01 02:54:32;;;;;;;3.30;1.25;;;;;;;;;;4991173;28;20452;-62
2022/09/01 02:56:58;;;;;;;2.45;0.90;;;;;;;;;;4990169;28;20458;-62
2022/09/01 02:59:26;;;;;;;1.70;0.82;;;;;;;;;;4990420;28;20312;-62
2022/09/01 03:01:52;;;;;;;4.65;0.80;;;;;;;;;;4990162;28;20391;-62
2022/09/01 03:04:19;;;;;;;2.47;0.93;;;;;;;;;;4990019;28;20503;-62
2022/09/01 03:06:45;;;;;;;2.03;0.98;;;;;;;;;;4990078;28;20032;-62
2022/09/01 03:09:13;;;;;;;2.22;1.27;;;;;;;;;;4988872;28;20102;-62
2022/09/01 03:11:41;;;;;;;4.33;1.63;;;;;;;;;;4990876;28;20420;-62
2022/09/01 03:14:07;;;;;;;2.58;1.20;;;;;;;;;;4990693;28;20436;-62
2022/09/01 03:16:33;;;;;;;3.17;1.25;;;;;;;;;;4989872;28;20457;-62
2022/09/01 03:19:02;;;;;;;3.38;1.10;;;;;;;;;;4989778;28;20459;-62
2022/09/01 03:21:28;;;;;;;3.55;1.15;;;;;;;;;;4989586;28;20099;-62
2022/09/01 03:23:53;;;;;;;4.75;0.85;;;;;;;;;;4989902;28;20359;-62
2022/09/01 03:26:20;;;;;;;4.78;1.27;;;;;;;;;;4990011;28;20402;-62
2022/09/01 03:28:48;;;;;;;3.75;1.15;;;;;;;;;;4989587;28;20395;-62
2022/09/01 03:31:14;;;;;;;3.30;0.93;;;;;;;;;;4990334;28;20502;-62
2022/09/01 03:33:40;;;;;;;1.92;0.95;;;;;;;;;;4989616;28;20367;-62
2022/09/01 03:36:06;;;;;;;3.92;1.45;;;;;;;;;;4989394;28;20346;-62
2022/09/01 03:38:32;;;;;;;3.67;0.95;;;;;;;;;;4989550;28;20351;-62
2022/09/01 03:41:00;;;;;;;4.68;1.30;;;;;;;;;;4989143;28;20454;-63
2022/09/01 03:43:28;;;;;;;4.40;1.45;;;;;;;;;;4971614;28;20048;-62
2022/09/01 03:45:54;;;;;;;3.40;1.20;;;;;;;;;;4989749;28;20446;-62
2022/09/01 03:48:21;;;;;;;7.80;1.40;;;;;;;;;;4971074;28;20428;-62
2022/09/01 03:50:48;;;;;;;2.80;0.95;;;;;;;;;;4988592;28;20466;-62
2022/09/01 03:53:18;;;;;;;1.92;1.10;;;;;;;;;;4989922;28;20424;-62
2022/09/01 03:55:46;;;;;;;1.63;1.10;;;;;;;;;;4987821;28;20403;-62
2022/09/01 03:58:13;;;;;;;2.25;1.45;;;;;;;;;;4991467;28;20410;-62
2022/09/01 04:00:44;;;;;;;2.83;0.98;;;;;;;;;;4989184;28;20351;-62
2022/09/01 04:03:11;;;;;;;2.67;1.25;;;;;;;;;;4989233;28;20373;-62
2022/09/01 04:05:40;;;;;;;2.47;0.95;;;;;;;;;;4988730;28;20525;-62
2022/09/01 04:08:09;;;;;;;2.15;1.05;;;;;;;;;;4988474;28;20353;-62
2022/09/01 04:10:50;;;;;;;2.35;1.00;;;;;;;;;;4989027;28;20501;-62
2022/09/01 04:13:22;;;;;;;2.30;1.10;;;;;;;;;;4988751;28;20348;-62
2022/09/01 04:15:48;;;;;;;7.38;1.08;;;;;;;;;;4988978;28;20033;-62
2022/09/01 04:18:20;;;;;;;1.75;0.95;;;;;;;;;;4988632;28;20505;-62
2022/09/01 04:20:55;;;;;;;3.47;1.42;;;;;;;;;;4988701;28;20456;-62
2022/09/01 04:23:38;;;;;;;2.10;0.93;;;;;;;;;;4988527;28;20473;-62
2022/09/01 04:26:13;;;;;;;3.97;1.30;;;;;;;;;;4989221;28;20420;-62
2022/09/01 04:28:48;;;;;;;2.63;1.10;;;;;;;;;;4989326;28;20321;-62
2022/09/01 04:31:19;;;;;;;2.05;1.10;;;;;;;;;;4970836;28;20377;-62
2022/09/01 04:33:46;;;;;;;1.60;1.00;;;;;;;;;;4988284;28;20029;-62
2022/09/01 04:36:18;;;;;;;2.10;1.10;;;;;;;;;;4988346;28;20390;-62
2022/09/01 04:38:44;;;;;;;2.60;1.30;;;;;;;;;;4988289;28;20372;-62
2022/09/01 04:41:16;;;;;;;1.85;1.13;;;;;;;;;;4989279;28;20500;-62
2022/09/01 04:43:46;;;;;;;3.25;1.27;;;;;;;;;;4988378;28;20359;-62
2022/09/01 04:46:13;;;;;;;2.72;1.23;;;;;;;;;;4988569;28;20032;-62
2022/09/01 04:48:41;;;;;;;2.63;1.35;;;;;;;;;;4988035;28;20426;-62
2022/09/01 04:51:09;;;;;;;4.00;1.77;;;;;;;;;;4988015;28;20411;-62
2022/09/01 04:53:35;;;;;;;1.33;1.10;;;;;;;;;;4987633;28;20440;-62
2022/09/01 04:56:05;;;;;;;3.45;1.10;;;;;;;;;;4987624;28;20363;-62
2022/09/01 04:58:31;;;;;;;2.78;1.23;;;;;;;;;;4987978;28;20394;-62
2022/09/01 05:00:59;;;;;;;2.67;1.30;;;;;;;;;;4990410;28;20324;-63
2022/09/01 05:03:30;;;;;;;2.58;1.02;;;;;;;;;;4987933;28;20442;-62
2022/09/01 05:05:58;;;;;;;4.63;1.20;;;;;;;;;;4988410;28;20331;-62
2022/09/01 05:08:24;;;;;;;2.30;1.10;;;;;;;;;;4987990;28;20507;-62
2022/09/01 05:10:54;;;;;;;2.70;1.23;;;;;;;;;;4989824;28;20435;-62
2022/09/01 05:13:21;;;;;;;8.40;1.15;;;;;;;;;;4987954;28;20540;-62
2022/09/01 05:15:46;;;;;;;3.40;1.60;;;;;;;;;;4980241;28;20428;-62
2022/09/01 05:18:22;;;;;;;2.95;1.13;;;;;;;;;;4988410;28;20420;-62
2022/09/01 05:20:48;;;;;;;2.05;0.85;;;;;;;;;;4987966;28;20361;-61
2022/09/01 05:23:18;;;;;;;2.17;1.00;;;;;;;;;;4987801;28;20432;-62
2022/09/01 05:25:45;;;;;;;2.13;1.20;;;;;;;;;;4988754;28;20407;-62
2022/09/01 05:28:14;;;;;;;2.58;1.20;;;;;;;;;;4987570;28;20466;-62
2022/09/01 05:30:39;;;;;;;;;;;;;;;;;;4988071;28;20067;-62
2022/09/01 05:33:11;;;;;;;1.88;0.88;;;;;;;;;;4987162;28;20023;-62
2022/09/01 05:35:43;;;;;;;6.85;1.33;;;;;;;;;;4987609;28;20333;-62
2022/09/01 05:38:11;;;;;;;2.47;1.10;;;;;;;;;;4987482;28;20104;-62
2022/09/01 05:40:40;;;;;;;3.13;1.03;;;;;;;;;;4987808;28;20513;-62
2022/09/01 05:43:07;;;;;;;1.90;0.93;;;;;;;;;;4988333;28;20370;-62
2022/09/01 05:45:34;;;;;;;3.25;1.20;;;;;;;;;;4987797;28;20033;-62
2022/09/01 05:48:01;;;;;;;1.88;0.90;;;;;;;;;;4987793;28;20335;-62
2022/09/01 05:50:27;;;;;;;2.40;0.93;;;;;;;;;;4988113;28;20344;-62
2022/09/01 05:52:52;;;;;;;3.20;0.93;;;;;;;;;;4987474;28;20021;-63
2022/09/01 05:55:17;;;;;;;4.20;1.08;;;;;;;;;;4987238;28;20491;-62
2022/09/01 05:57:44;;;;;;;1.70;0.90;;;;;;;;;;4987764;28;20348;-62
2022/09/01 06:00:11;;;;;;;3.67;1.08;;;;;;;;;;4989367;28;20455;-62
2022/09/01 06:02:38;;;;;;;3.67;0.80;;;;;;;;;;4979663;28;20462;-62
2022/09/01 06:05:04;;;;;;;2.17;0.93;;;;;;;;;;4988850;28;20420;-62
2022/09/01 06:07:30;;;;;;;2.65;0.60;;;;;;;;;;4987333;28;20033;-62
2022/09/01 06:09:55;;;;;;;3.45;0.90;;;;;;;;;;4989200;28;20427;-61
2022/09/01 06:12:22;;;;;;;3.28;1.20;;;;;;;;;;4987131;28;20391;-62
2022/09/01 06:14:49;;;;;;;7.75;0.90;;;;;;;;;;4987286;28;20416;-61
2022/09/01 06:17:18;;;;;;;7.00;1.15;;;;;;;;;;4988092;28;20103;-62
2022/09/01 06:19:44;;;;;;;4.90;1.13;;;;;;;;;;4987318;28;20017;-62
2022/09/01 06:22:10;;;;;;;3.28;1.10;;;;;;;;;;4988077;28;20029;-62
2022/09/01 06:24:38;;;;;;;2.65;1.00;;;;;;;;;;4989481;28;20471;-62
2022/09/01 06:27:08;;;;;;;2.22;1.02;;;;;;;;;;4987273;28;20482;-62
2022/09/01 06:29:36;;;;;;;3.03;0.98;;;;;;;;;;4970126;28;20463;-62
2022/09/01 06:32:02;;;;;;;3.63;0.83;;;;;;;;;;4987452;28;20499;-62
2022/09/01 06:34:28;;;;;;;1.52;0.80;;;;;;;;;;4987419;28;20375;-62
2022/09/01 06:36:53;;;;;;;1.42;0.93;;;;;;;;;;4988458;28;20025;-62
2022/09/01 06:39:19;;;;;;;8.57;1.00;;;;;;;;;;4987395;28;20102;-62
2022/09/01 06:41:51;;;;;;;2.42;1.00;;;;;;;;;;4987367;28;20452;-62
2022/09/01 06:44:21;;;;;;;1.48;0.80;;;;;;;;;;4990487;28;20029;-62
2022/09/01 06:46:47;;;;;;;1.00;0.60;;;;;;;;;;4990645;28;20435;-62
2022/09/01 06:49:13;;;;;;;2.88;0.70;;;;;;;;;;4973170;28;20453;-62
2022/09/01 06:51:38;;;;;;;1.42;0.80;;;;;;;;;;4990820;28;20459;-62
2022/09/01 06:54:05;;;;;;;0.77;0.50;;;;;;;;;;4991882;28;20418;-62
2022/09/01 06:56:32;;;;;;;1.52;0.80;;;;;;;;;;4991137;28;20525;-61
2022/09/01 06:59:00;;;;;;;1.88;0.68;;;;;;;;;;4990979;28;20460;-62
2022/09/01 07:01:26;;;;;;;1.20;0.63;;;;;;;;;;4992769;28;20060;-62
2022/09/01 07:03:53;;;;;;;1.15;0.70;;;;;;;;;;4990731;28;20440;-62
2022/09/01 07:06:23;;;;;;;0.93;0.70;;;;;;;;;;4990713;28;20356;-62
2022/09/01 07:08:49;;;;;;;1.15;0.60;;;;;;;;;;4991744;28;20052;-62
2022/09/01 07:11:22;;;;;;;2.10;0.90;;;;;;;;;;4990428;28;20436;-62
2022/09/01 07:13:49;;;;;;;4.22;1.08;;;;;;;;;;4992413;28;20486;-62
2022/09/01 07:16:21;;;;;;;2.05;1.15;;;;;;;;;;4990384;28;20436;-62
2022/09/01 07:18:53;;;;;;;3.03;1.27;;;;;;;;;;4989941;28;20431;-62
2022/09/01 07:21:18;;;;;;;4.65;2.33;;;;;;;;;;4991191;28;20329;-62
2022/09/01 07:23:45;;;;;;;2.28;0.95;;;;;;;;;;4989273;28;20390;-62
2022/09/01 07:26:13;;;;;;;6.00;2.67;;;;;;;;;;4990181;28;20459;-62
2022/09/01 07:28:39;;;;;;;2.63;1.45;;;;;;;;;;4991163;28;20484;-62
2022/09/01 07:31:07;;;;;;;1.55;0.73;;;;;;;;;;4990025;28;20115;-62
2022/09/01 07:33:32;;;;;;;2.67;0.73;;;;;;;;;;4990108;28;20513;-62
2022/09/01 07:35:58;;;;;;;1.27;0.75;;;;;;;;;;4990109;28;20344;-62
2022/09/01 07:38:24;;;;;;;1.13;0.70;;;;;;;;;;4992023;28;20428;-61
2022/09/01 07:40:52;;;;;;;2.10;0.80;;;;;;;;;;4990481;28;20021;-61
2022/09/01 07:43:25;;;;;;;1.35;0.77;;;;;;;;;;4990819;28;20506;-62
2022/09/01 07:45:54;;;;;;;7.25;1.15;;;;;;;;;;4990262;28;20356;-62
2022/09/01 07:48:21;;;;;;;1.73;0.88;;;;;;;;;;4989523;28;20466;-61
2022/09/01 07:50:50;;;;;;;3.35;1.33;;;;;;;;;;4989806;28;20068;-62
2022/09/01 07:53:19;;;;;;;4.65;0.85;;;;;;;;;;4990135;28;20458;-62
2022/09/01 07:55:45;;;;;;;2.30;1.25;;;;;;;;;;4988434;28;20553;-62
2022/09/01 07:58:13;;;;;;;2.03;0.52;;;;;;;;;;4990380;28;20508;-62
2022/09/01 08:00:42;;;;;;;5.45;1.52;;;;;;;;;;4989425;28;20432;-62
2022/09/01 08:03:07;;;;;;;0.88;0.65;;;;;;;;;;4990457;28;20375;-62
2022/09/01 08:05:32;;;;;;;2.40;0.60;;;;;;;;;;4989546;28;20068;-62
2022/09/01 08:07:58;;;;;;;2.03;0.60;;;;;;;;;;4990498;28;20483;-62
2022/09/01 08:10:24;;;;;;;1.02;0.65;;;;;;;;;;4989495;28;20360;-62
2022/09/01 08:12:49;;;;;;;3.33;0.75;;;;;;;;;;4988396;28;20470;-61
2022/09/01 08:15:16;;;;;;;1.40;0.43;;;;;;;;;;4987667;28;20352;-62
2022/09/01 08:17:42;;;;;;;1.73;0.70;;;;;;;;;;4988284;28;20568;-62
2022/09/01 08:20:08;;;;;;;1.52;0.70;;;;;;;;;;4990202;28;20332;-62
2022/09/01 08:22:36;;;;;;;0.98;0.75;;;;;;;;;;4988361;28;20344;-62
2022/09/01 08:25:04;;;;;;;1.48;0.80;;;;;;;;;;4988635;28;20052;-62
2022/09/01 08:27:32;;;;;;;0.68;0.30;;;;;;;;;;4989610;28;20072;-62
2022/09/01 08:29:59;;;;;;;1.38;0.52;;;;;;;;;;4989441;28;20577;-62
2022/09/01 08:32:25;;;;;;;2.83;1.00;;;;;;;;;;4989273;28;20519;-62
2022/09/01 08:34:50;;;;;;;1.00;0.40;;;;;;;;;;4988904;28;20440;-62
2022/09/01 08:37:15;;;;;;;1.73;0.70;;;;;;;;;;4989460;28;20494;-62
2022/09/01 08:39:41;;;;;;;2.20;0.88;;;;;;;;;;4989554;28;20416;-62
2022/09/01 08:42:21;;;;;;;0.65;0.55;;;;;;;;;;4988872;28;20394;-62
2022/09/01 08:44:53;;;;;;;1.48;0.60;;;;;;;;;;4971791;28;20025;-62
2022/09/01 08:47:18;;;;;;;1.02;0.60;;;;;;;;;;4988443;28;20041;-62
2022/09/01 08:49:48;;;;;;;1.00;0.57;;;;;;;;;;4988120;28;20432;-62
2022/09/01 08:52:40;;;;;;;0.90;0.40;;;;;;;;;;4971015;28;20106;-62
2022/09/01 08:55:15;;;;;;;0.43;0.25;;;;;;;;;;4988056;28;20448;-62
2022/09/01 08:57:44;;;;;;;1.02;0.50;;;;;;;;;;4989025;28;20467;-62
2022/09/01 09:00:12;;;;;;;0.68;0.43;;;;;;;;;;4970990;28;20483;-62
2022/09/01 09:02:45;;;;;;;1.35;0.80;;;;;;;;;;4989344;28;20505;-62
2022/09/01 09:05:40;;;;;;;0.98;0.47;;;;;;;;;;4970343;28;20305;-62
2022/09/01 09:08:20;;;;;;;1.10;0.40;;;;;;;;;;4989847;28;20509;-61
2022/09/01 09:10:57;;;;;;;0.55;0.40;;;;;;;;;;4970769;28;20386;-62
2022/09/01 09:13:41;;;;;;;1.95;0.60;;;;;;;;;;4988723;28;20463;-62
2022/09/01 09:16:29;;;;;;;1.15;0.50;;;;;;;;;;4988911;28;20363;-62
2022/09/01 09:19:02;;;;;;;0.82;0.50;;;;;;;;;;4971115;28;20515;-62
2022/09/01 09:21:43;;;;;;;1.73;0.40;;;;;;;;;;4988477;28;20028;-62
2022/09/01 09:24:13;;;;;;;1.48;0.50;;;;;;;;;;4990298;28;20486;-62
2022/09/01 09:26:39;;;;;;;0.60;0.40;;;;;;;;;;4971356;28;20124;-62
2022/09/01 09:29:04;;;;;;;1.90;0.50;;;;;;;;;;4989027;28;20499;-62
2022/09/01 09:31:35;;;;;;;0.68;0.50;;;;;;;;;;4988310;28;20432;-62
2022/09/01 09:34:01;;;;;;;0.55;0.47;;;;;;;;;;4988518;28;20423;-62
2022/09/01 09:36:34;;;;;;;1.20;0.32;;;;;;;;;;4988128;28;20396;-62
2022/09/01 09:39:07;;;;;;;1.05;0.40;;;;;;;;;;4989011;28;20410;-62
2022/09/01 09:41:32;;;;;;;0.57;0.45;;;;;;;;;;4988566;28;20341;-62
2022/09/01 09:44:02;;;;;;;0.75;0.40;;;;;;;;;;4988896;28;20379;-62
2022/09/01 09:46:30;;;;;;;0.50;0.30;;;;;;;;;;4988034;28;20052;-62
2022/09/01 09:49:12;;;;;;;0.70;0.32;;;;;;;;;;4987906;28;20387;-62
2022/09/01 09:51:41;;;;;;;2.75;0.45;;;;;;;;;;4988045;28;20348;-62
2022/09/01 09:54:19;;;;;;;2.13;0.30;;;;;;;;;;4988279;28;20056;-62
2022/09/01 09:56:45;;;;;;;;;;;;;;;;;;4961876;28;20360;-62
2022/09/01 09:59:23;;;;;;;0.80;0.50;;;;;;;;;;4967899;28;19931;-61
2022/09/01 10:01:50;;;;;;;0.70;0.50;;;;;;;;;;4950512;28;20053;-62
2022/09/01 10:04:34;;;;;;;1.25;0.77;;;;;;;;;;4968286;28;20021;-62
2022/09/01 10:07:00;;;;;;;1.38;0.40;;;;;;;;;;4968098;28;20428;-62
2022/09/01 10:09:25;;;;;;;0.93;0.45;;;;;;;;;;4968135;28;20428;-62
2022/09/01 10:11:56;;;;;;;0.70;0.35;;;;;;;;;;4968060;28;20360;-62
2022/09/01 10:14:29;;;;;;;0.40;0.40;;;;;;;;;;4950081;28;20029;-62
2022/09/01 10:17:05;;;;;;;0.30;0.22;;;;;;;;;;4950656;28;20451;-63
2022/09/01 10:19:32;;;;;;;0.80;0.50;;;;;;;;;;4953617;28;20456;-62
2022/09/01 10:21:58;;;;;;;0.70;0.40;;;;;;;;;;4953766;28;20441;-62
2022/09/01 10:24:35;;;;;;;0.47;0.40;;;;;;;;;;4971517;28;20393;-62
2022/09/01 10:27:03;;;;;;;0.77;0.30;;;;;;;;;;4953507;28;20338;-62
2022/09/01 10:29:50;;;;;;;;;;;;;;;;;;4972029;28;20376;-62
2022/09/01 10:32:19;;;;;;;0.52;0.30;;;;;;;;;;4953723;28;20407;-62
2022/09/01 10:34:45;;;;;;;0.93;0.55;;;;;;;;;;4953676;28;20333;-62
2022/09/01 10:37:11;;;;;;;0.57;0.30;;;;;;;;;;4955105;28;20052;-62
2022/09/01 10:40:09;;;;;;;2.25;0.52;;;;;;;;;;4953563;28;20432;-62
2022/09/01 10:42:34;;;;;;;0.95;0.30;;;;;;;;;;4953341;28;20346;-62
2022/09/01 10:45:02;;;;;;;0.45;0.40;;;;;;;;;;4953625;28;20463;-62
2022/09/01 10:47:32;;;;;;;1.85;0.47;;;;;;;;;;4971081;28;20036;-63
2022/09/01 10:50:05;;;;;;;0.68;0.43;;;;;;;;;;4953624;28;20033;-63
2022/09/01 10:52:39;;;;;;;1.25;0.80;;;;;;;;;;4953358;28;20415;-63
2022/09/01 10:55:08;;;;;;;0.75;0.30;;;;;;;;;;4977028;28;20045;-63
2022/09/01 10:57:45;;;;;;;0.55;0.43;;;;;;;;;;4972621;28;20345;-63
2022/09/01 11:00:34;;;;;;;1.05;0.40;;;;;;;;;;4972544;28;20456;-62
2022/09/01 11:03:11;;;;;;;0.65;0.30;;;;;;;;;;4990718;28;20037;-63
2022/09/01 11:05:59;;;;;;;1.60;0.70;;;;;;;;;;4990455;28;20036;-63
2022/09/01 11:08:27;;;;;;;0.63;0.35;;;;;;;;;;4973405;28;20432;-63
2022/09/01 11:11:03;;;;;;;1.77;0.38;;;;;;;;;;4992239;28;20451;-63
2022/09/01 11:13:45;;;;;;;3.83;0.57;;;;;;;;;;4990418;28;20396;-66
2022/09/01 11:16:26;;;;;;;1.17;0.40;;;;;;;;;;4990292;28;20029;-63
2022/09/01 11:18:52;;;;;;;0.30;0.20;;;;;;;;;;4990311;28;20443;-62
2022/09/01 11:21:24;;;;;;;0.63;0.30;;;;;;;;;;4988951;28;20444;-63
2022/09/01 11:23:50;;;;;;;0.40;0.30;;;;;;;;;;4990389;28;20427;-62
2022/09/01 11:26:31;;;;;;;0.68;0.55;;;;;;;;;;4972429;28;20461;-63
2022/09/01 11:28:57;;;;;;;0.40;0.30;;;;;;;;;;4989350;28;20509;-63
2022/09/01 11:31:42;;;;;;;0.45;0.30;;;;;;;;;;4990096;28;20384;-63
2022/09/01 11:34:17;;;;;;;0.40;0.30;;;;;;;;;;4989584;28;20104;-62
2022/09/01 11:36:44;;;;;;;1.13;0.40;;;;;;;;;;4989998;28;20432;-62
2022/09/01 11:39:12;;;;;;;0.10;0.10;;;;;;;;;;4989964;28;20533;-62
2022/09/01 11:41:54;;;;;;;0.40;0.32;;;;;;;;;;4989924;28;20060;-62
2022/09/01 11:44:41;;;;;;;0.20;0.20;;;;;;;;;;4973205;28;20428;-63
2022/09/01 11:47:15;;;;;;;0.35;0.20;;;;;;;;;;4989944;28;20464;-63
2022/09/01 11:49:57;;;;;;;1.08;0.40;;;;;;;;;;4972049;28;20434;-62
2022/09/01 11:52:26;;;;;;;0.30;0.20;;;;;;;;;;4989025;28;20106;-62
2022/09/01 11:54:51;;;;;;;0.65;0.32;;;;;;;;;;4989197;28;20064;-62
2022/09/01 11:57:28;;;;;;;2.38;0.20;;;;;;;;;;4989665;28;20407;-62
2022/09/01 11:59:54;;;;;;;0.68;0.35;;;;;;;;;;4989592;28;20465;-63
2022/09/01 12:02:32;;;;;;;0.40;0.30;;;;;;;;;;4990094;28;20051;-63
2022/09/01 12:04:59;;;;;;;0.60;0.47;;;;;;;;;;4990739;28;20422;-63
2022/09/01 12:07:33;;;;;;;0.30;0.20;;;;;;;;;;4989256;28;20356;-62
2022/09/01 12:09:58;;;;;;;1.10;0.40;;;;;;;;;;4989400;28;20343;-62
2022/09/01 12:12:37;;;;;;;0.10;0.10;;;;;;;;;;4971227;28;20068;-62
2022/09/01 12:15:24;;;;;;;0.65;0.35;;;;;;;;;;4991220;28;20032;-63
2022/09/01 12:17:52;;;;;;;1.05;0.30;;;;;;;;;;4988822;28;20535;-63
2022/09/01 12:20:29;;;;;;;0.63;0.35;;;;;;;;;;4990371;28;20058;-62
2022/09/01 12:22:57;;;;;;;0.43;0.10;;;;;;;;;;4989404;28;20428;-63
2022/09/01 12:25:28;;;;;;;0.47;0.40;;;;;;;;;;4989165;28;20427;-63
2022/09/01 12:27:54;;;;;;;0.65;0.30;;;;;;;;;;4971004;28;20356;-62
2022/09/01 12:30:20;;;;;;;0.47;0.30;;;;;;;;;;4971343;28;20025;-62
2022/09/01 12:32:46;;;;;;;0.50;0.38;;;;;;;;;;4971505;28;20440;-62
2022/09/01 12:35:23;;;;;;;1.08;0.30;;;;;;;;;;4989656;28;20429;-62
2022/09/01 12:37:51;;;;;;;0.40;0.17;;;;;;;;;;4989917;28;20316;-63
2022/09/01 12:40:25;;;;;;;0.20;0.20;;;;;;;;;;4988823;28;20136;-63
2022/09/01 12:42:52;;;;;;;0.93;0.50;;;;;;;;;;4970502;28;20110;-62
2022/09/01 12:45:44;;;;;;;0.20;0.17;;;;;;;;;;4990458;28;20053;-63
2022/09/01 12:48:32;;;;;;;0.60;0.15;;;;;;;;;;4990930;28;20440;-63
2022/09/01 12:50:59;;;;;;;0.10;0.10;;;;;;;;;;4989008;28;20352;-62
2022/09/01 12:53:27;;;;;;;0.40;0.23;;;;;;;;;;4990107;28;20521;-63
2022/09/01 12:55:59;;;;;;;0.98;0.47;;;;;;;;;;4990014;28;20499;-63
2022/09/01 12:58:26;;;;;;;0.85;0.20;;;;;;;;;;4988142;28;20033;-63
2022/09/01 13:00:59;;;;;;;0.70;0.30;;;;;;;;;;4970505;28;20029;-62
2022/09/01 13:03:26;;;;;;;2.70;0.25;;;;;;;;;;4989068;28;20385;-62
2022/09/01 13:05:54;;;;;;;0.35;0.10;;;;;;;;;;4988234;28;20510;-62
2022/09/01 13:08:31;;;;;;;1.85;0.35;;;;;;;;;;4988118;28;20418;-62
2022/09/01 13:11:08;;;;;;;1.00;0.40;;;;;;;;;;4988050;28;20052;-62
2022/09/01 13:13:34;;;;;;;0.38;0.35;;;;;;;;;;4988856;28;20432;-62
2022/09/01 13:16:07;;;;;;;1.10;0.50;;;;;;;;;;4988155;28;20428;-62
2022/09/01 13:18:32;;;;;;;0.38;0.10;;;;;;;;;;4988015;28;20144;-63
2022/09/01 13:20:58;;;;;;;1.15;0.22;;;;;;;;;;4989651;28;20447;-63
2022/09/01 13:23:24;;;;;;;1.20;0.35;;;;;;;;;;4987923;28;20444;-62
2022/09/01 13:25:49;;;;;;;0.98;0.45;;;;;;;;;;4988092;28;20511;-63
2022/09/01 13:28:16;;;;;;;0.28;0.22;;;;;;;;;;4987841;28;20135;-62
2022/09/01 13:30:45;;;;;;;0.32;0.15;;;;;;;;;;4988298;28;20475;-62
2022/09/01 13:33:11;;;;;;;0.70;0.20;;;;;;;;;;4971337;28;20335;-63
2022/09/01 13:35:37;;;;;;;0.38;0.20;;;;;;;;;;4987906;28;20025;-63
2022/09/01 13:38:03;;;;;;;0.80;0.30;;;;;;;;;;4988341;28;20710;-62
2022/09/01 13:40:28;;;;;;;0.43;0.15;;;;;;;;;;4987885;28;20464;-63
2022/09/01 13:42:54;;;;;;;0.77;0.22;;;;;;;;;;4987985;28;20374;-62
2022/09/01 13:45:24;;;;;;;0.30;0.20;;;;;;;;;;4988985;28;20340;-62
2022/09/01 13:47:50;;;;;;;0.25;0.15;;;;;;;;;;4987564;28;20394;-62
2022/09/01 13:50:18;;;;;;;0.57;0.20;;;;;;;;;;4987807;28;20029;-62
2022/09/01 13:52:47;;;;;;;0.90;0.45;;;;;;;;;;4989747;28;20055;-62
2022/09/01 13:55:19;;;;;;;0.45;0.20;;;;;;;;;;4991483;28;20443;-62
2022/09/01 13:57:44;;;;;;;0.52;0.32;;;;;;;;;;4991933;28;20349;-62
2022/09/01 14:00:14;;;;;;;0.57;0.25;;;;;;;;;;4992654;28;20430;-63
2022/09/01 14:02:41;;;;;;;1.40;0.38;;;;;;;;;;4993604;28;20304;-63
2022/09/01 14:05:08;;;;;;;4.97;0.52;;;;;;;;;;4991643;28;20372;-62
2022/09/01 14:07:33;;;;;;;1.13;0.10;;;;;;;;;;4992404;28;20051;-62
2022/09/01 14:09:59;;;;;;;0.17;0.10;;;;;;;;;;4991646;28;20412;-62
2022/09/01 14:12:24;;;;;;;1.70;0.30;;;;;;;;;;4991502;28;20044;-62
2022/09/01 14:14:50;;;;;;;1.55;0.40;;;;;;;;;;4991280;28;20082;-62
2022/09/01 14:17:15;;;;;;;0.22;0.17;;;;;;;;;;4991529;28;20440;-62
2022/09/01 14:19:41;;;;;;;0.25;0.10;;;;;;;;;;4993585;28;20087;-63
2022/09/01 14:22:07;;;;;;;1.05;0.40;;;;;;;;;;4991358;28;20566;-62
2022/09/01 14:24:35;;;;;;;0.15;0.00;;;;;;;;;;4991485;28;20511;-62
2022/09/01 14:27:01;;;;;;;1.23;0.50;;;;;;;;;;4993038;28;20513;-62
2022/09/01 14:29:26;;;;;;;0.28;0.15;;;;;;;;;;4991248;28;20424;-63
2022/09/01 14:31:55;;;;;;;0.98;0.20;;;;;;;;;;4992375;28;20447;-62
2022/09/01 14:34:23;;;;;;;0.10;0.10;;;;;;;;;;4991279;28;20464;-62
2022/09/01 14:36:48;;;;;;;1.00;0.30;;;;;;;;;;4991485;28;20529;-62
2022/09/01 14:39:14;;;;;;;0.73;0.28;;;;;;;;;;4991387;28;20428;-62
2022/09/01 14:41:39;;;;;;;0.47;0.20;;;;;;;;;;4992037;28;20372;-62
2022/09/01 14:44:05;;;;;;;0.10;0.10;;;;;;;;;;4990894;28;20513;-62
2022/09/01 14:46:32;;;;;;;0.10;0.10;;;;;;;;;;4990893;28;20481;-62
2022/09/01 14:48:59;;;;;;;0.60;0.30;;;;;;;;;;4990885;28;20518;-62
2022/09/01 14:51:27;;;;;;;0.20;0.17;;;;;;;;;;4990624;28;20093;-62
2022/09/01 14:53:53;;;;;;;0.50;0.17;;;;;;;;;;4991261;28;20505;-62
2022/09/01 14:56:19;;;;;;;0.60;0.40;;;;;;;;;;4991163;28;20524;-62
2022/09/01 14:58:46;;;;;;;0.50;0.32;;;;;;;;;;4990747;28;20443;-62